Latest Weather Observations for Sellicks Hill

IDS60801

Issued at 6:05 am CDT Tuesday 25 November 2014 (issued every 30 minutes, with the page automatically refreshed every 10 minutes)

About weather observations | Map of weather stations | Latest weather observations for SA | Other Formats
Station Details ID: 023886 Name: MOUNT TERRIBLE RADAR Lat: -35.33 Lon: 138.50 Height: 385.7 m
Data from the previous 72 hours. | See also: Recent months for locations in South Australia
Date/Time
CDT
Temp
°C
App
Temp
°C
Dew
Point
Rel
Hum
%
Delta-T
°C
Wind Press
QNH
hPa
Press
MSL
hPa
Rain
since 9 am
mm
Dir
 
Spd
km/h
Gust
km/h
Spd
kts
Gust
kts
25/06:00am - - - - - SSW 9 17 5 9 - - -
25/05:30am - - - - - SW 9 17 5 9 - - -
25/05:00am - - - - - SW 9 17 5 9 - - -
25/04:30am - - - - - SSW 9 13 5 7 - - -
25/04:00am - - - - - SSW 11 15 6 8 - - -
25/03:30am - - - - - SSW 9 13 5 7 - - -
25/03:00am - - - - - SW 7 11 4 6 - - -
25/02:30am - - - - - SW 9 15 5 8 - - -
25/02:00am - - - - - SW 9 13 5 7 - - -
25/01:30am - - - - - SSW 9 19 5 10 - - -
25/01:00am - - - - - SW 11 19 6 10 - - -
25/12:30am - - - - - SW 9 15 5 8 - - -
25/12:00am - - - - - SW 11 20 6 11 - - -
 
Date/Time
CDT
Temp
°C
App
Temp
°C
Dew
Point
Rel
Hum
%
Delta-T
°C
Wind Press
QNH
hPa
Press
MSL
hPa
Rain
since 9 am
mm
Dir
 
Spd
km/h
Gust
km/h
Spd
kts
Gust
kts
24/11:30pm - - - - - SW 9 19 5 10 - - -
24/11:00pm - - - - - SSW 9 17 5 9 - - -
24/10:30pm - - - - - SW 9 17 5 9 - - -
24/10:00pm - - - - - SW 13 22 7 12 - - -
24/09:30pm - - - - - SSW 11 19 6 10 - - -
24/09:00pm - - - - - S 13 26 7 14 - - -
24/08:30pm - - - - - S 13 20 7 11 - - -
24/08:00pm - - - - - SSW 11 17 6 9 - - -
24/07:30pm - - - - - SSW 13 20 7 11 - - -
24/07:00pm - - - - - SSW 13 24 7 13 - - -
24/06:30pm - - - - - WSW 9 24 5 13 - - -
24/06:00pm - - - - - W 13 26 7 14 - - -
24/05:30pm - - - - - W 17 33 9 18 - - -
24/05:00pm - - - - - WNW 17 35 9 19 - - -
24/04:30pm - - - - - WNW 17 33 9 18 - - -
24/04:00pm - - - - - WNW 15 28 8 15 - - -
24/03:30pm - - - - - WNW 15 26 8 14 - - -
24/03:00pm - - - - - W 13 28 7 15 - - -
24/02:30pm - - - - - WNW 13 28 7 15 - - -
24/02:00pm - - - - - WNW 15 30 8 16 - - -
24/01:30pm - - - - - W 11 24 6 13 - - -
24/01:00pm - - - - - W 13 28 7 15 - - -
24/12:30pm - - - - - W 11 28 6 15 - - -
24/12:00pm - - - - - WSW 6 13 3 7 - - -
24/11:30am - - - - - WNW 7 17 4 9 - - -
24/11:00am - - - - - WNW 11 26 6 14 - - -
24/10:30am - - - - - W 7 15 4 8 - - -
24/10:00am - - - - - SW 7 17 4 9 - - -
24/09:30am - - - - - S 19 28 10 15 - - -
24/09:00am - - - - - S 20 32 11 17 - - -
24/08:30am - - - - - S 24 35 13 19 - - -
24/08:00am - - - - - S 30 35 16 19 - - -
24/07:30am - - - - - S 28 33 15 18 - - -
24/07:00am - - - - - SSE 32 37 17 20 - - -
24/06:30am - - - - - S 35 41 19 22 - - -
24/06:00am - - - - - SSE 39 50 21 27 - - -
24/05:30am - - - - - SSE 41 52 22 28 - - -
24/05:00am - - - - - SSE 39 48 21 26 - - -
24/04:30am - - - - - SSE 35 41 19 22 - - -
24/04:00am - - - - - SSE 33 43 18 23 - - -
24/03:30am - - - - - S 32 44 17 24 - - -
24/03:00am - - - - - SSE 26 33 14 18 - - -
24/02:30am - - - - - SSE 26 32 14 17 - - -
24/02:00am - - - - - ESE 22 28 12 15 - - -
24/01:30am - - - - - SE 32 41 17 22 - - -
24/01:00am - - - - - SE 32 37 17 20 - - -
24/12:30am - - - - - SE 30 37 16 20 - - -
24/12:00am - - - - - SE 35 44 19 24 - - -
 
Date/Time
CDT
Temp
°C
App
Temp
°C
Dew
Point
Rel
Hum
%
Delta-T
°C
Wind Press
QNH
hPa
Press
MSL
hPa
Rain
since 9 am
mm
Dir
 
Spd
km/h
Gust
km/h
Spd
kts
Gust
kts
23/11:30pm - - - - - SE 39 46 21 25 - - -
23/11:00pm - - - - - SE 35 43 19 23 - - -
23/10:30pm - - - - - SE 37 43 20 23 - - -
23/10:00pm - - - - - SE 30 35 16 19 - - -
23/09:30pm - - - - - SSE 32 37 17 20 - - -
23/09:00pm - - - - - SE 26 30 14 16 - - -
23/08:30pm - - - - - SE 26 32 14 17 - - -
23/08:00pm - - - - - SE 26 33 14 18 - - -
23/07:30pm - - - - - SE 24 28 13 15 - - -
23/07:00pm - - - - - ESE 19 28 10 15 - - -
23/06:30pm - - - - - SE 9 17 5 9 - - -
23/06:00pm - - - - - E 2 7 1 4 - - -
23/05:30pm - - - - - NNE 2 6 1 3 - - -
23/05:00pm - - - - - NNE 2 6 1 3 - - -
23/04:30pm - - - - - NE 2 4 1 2 - - -
23/04:00pm - - - - - N 2 7 1 4 - - -
23/03:30pm - - - - - NNW 6 13 3 7 - - -
23/03:00pm - - - - - NW 7 13 4 7 - - -
23/02:30pm - - - - - WNW 7 13 4 7 - - -
23/02:00pm - - - - - SE 6 9 3 5 - - -
23/01:30pm - - - - - W 4 9 2 5 - - -
23/01:00pm - - - - - WNW 9 13 5 7 - - -
23/12:30pm - - - - - W 7 11 4 6 - - -
23/12:00pm - - - - - W 6 13 3 7 - - -
23/11:30am - - - - - WNW 7 13 4 7 - - -
23/11:00am - - - - - WNW 7 13 4 7 - - -
23/10:30am - - - - - NW 4 7 2 4 - - -
23/10:00am - - - - - WNW 2 6 1 3 - - -
23/09:30am - - - - - NNE 4 7 2 4 - - -
23/09:00am - - - - - E 4 7 2 4 - - -
23/08:30am - - - - - NNE 2 6 1 3 - - -
23/08:00am - - - - - E 2 6 1 3 - - -
23/07:30am - - - - - NE 2 6 1 3 - - -
23/07:00am - - - - - CALM 0 0 0 0 - - -
23/06:30am - - - - - CALM 0 0 0 0 - - -
23/06:00am - - - - - CALM 0 0 0 0 - - -
23/05:30am - - - - - E 4 7 2 4 - - -
23/05:00am - - - - - ESE 7 9 4 5 - - -
23/04:30am - - - - - ESE 6 7 3 4 - - -
23/04:00am - - - - - SE 7 9 4 5 - - -
23/03:30am - - - - - SE 9 11 5 6 - - -
23/03:00am - - - - - SE 9 9 5 5 - - -
23/02:30am - - - - - SSE 13 13 7 7 - - -
23/02:00am - - - - - SSE 13 15 7 8 - - -
23/01:30am - - - - - SSE 15 17 8 9 - - -
23/01:00am - - - - - SSE 15 17 8 9 - - -
23/12:30am - - - - - SSE 19 19 10 10 - - -
23/12:00am - - - - - SSE 17 19 9 10 - - -
 
Date/Time
CDT
Temp
°C
App
Temp
°C
Dew
Point
Rel
Hum
%
Delta-T
°C
Wind Press
QNH
hPa
Press
MSL
hPa
Rain
since 9 am
mm
Dir
 
Spd
km/h
Gust
km/h
Spd
kts
Gust
kts
22/11:30pm - - - - - SSE 22 24 12 13 - - -
22/11:00pm - - - - - SSE 20 26 11 14 - - -
22/10:30pm - - - - - SSE 20 22 11 12 - - -
22/10:00pm - - - - - SSE 20 24 11 13 - - -
22/09:30pm - - - - - SSE 20 22 11 12 - - -
22/09:00pm - - - - - SSE 19 20 10 11 - - -
22/08:30pm - - - - - SSE 20 22 11 12 - - -
22/08:00pm - - - - - S 20 22 11 12 - - -
22/07:30pm - - - - - S 24 30 13 16 - - -
22/07:00pm - - - - - S 19 24 10 13 - - -
22/06:30pm - - - - - WSW 4 13 2 7 - - -
22/06:00pm - - - - - WNW 9 17 5 9 - - -
22/05:30pm - - - - - W 7 15 4 8 - - -
22/05:00pm - - - - - W 7 17 4 9 - - -
22/04:30pm - - - - - W 9 19 5 10 - - -
22/04:00pm - - - - - WNW 13 22 7 12 - - -
22/03:30pm - - - - - NW 9 19 5 10 - - -
22/03:00pm - - - - - NW 13 26 7 14 - - -
22/02:30pm - - - - - WNW 13 28 7 15 - - -
22/02:00pm - - - - - NNW 13 26 7 14 - - -
22/01:30pm - - - - - NNW 19 33 10 18 - - -
22/01:00pm - - - - - NNW 13 26 7 14 - - -
22/12:30pm - - - - - NNW 15 30 8 16 - - -
22/12:00pm - - - - - NNW 13 22 7 12 - - -
22/11:30am - - - - - N 13 22 7 12 - - -
22/11:00am - - - - - N 11 20 6 11 - - -
22/10:30am - - - - - N 11 20 6 11 - - -
22/10:00am - - - - - N 11 17 6 9 - - -
22/09:30am - - - - - N 7 17 4 9 - - -
22/09:00am - - - - - N 9 20 5 11 - - -
22/08:30am - - - - - N 7 17 4 9 - - -
22/08:00am - - - - - NW 13 22 7 12 - - -
22/07:30am - - - - - N 9 20 5 11 - - -
22/07:00am - - - - - NW 9 19 5 10 - - -
22/06:30am - - - - - N 15 32 8 17 - - -

Other Formats:

Comma delimited format used in spreadsheet applications
http://www.bom.gov.au/fwo/IDS60801/IDS60801.95679.axf

JavaScript Object Notation format (JSON) in row-major order
http://www.bom.gov.au/fwo/IDS60801/IDS60801.95679.json